sensor_id;sensor_type;location;lat;lon;timestamp;pressure;altitude;pressure_sealevel;temperature;humidity
71107;BME280;58763;47.982;11.516;2022-10-18T00:00:52;95118.69;;;13.40;65.02
71107;BME280;58763;47.982;11.516;2022-10-18T00:03:17;95105.97;;;13.31;64.88
71107;BME280;58763;47.982;11.516;2022-10-18T00:05:43;95103.56;;;13.24;65.28
71107;BME280;58763;47.982;11.516;2022-10-18T00:08:08;95101.38;;;13.26;65.17
71107;BME280;58763;47.982;11.516;2022-10-18T00:10:34;95099.78;;;13.20;65.39
71107;BME280;58763;47.982;11.516;2022-10-18T00:13:00;95105.19;;;13.25;65.24
71107;BME280;58763;47.982;11.516;2022-10-18T00:15:25;95103.81;;;13.28;65.12
71107;BME280;58763;47.982;11.516;2022-10-18T00:17:51;95107.91;;;13.30;65.32
71107;BME280;58763;47.982;11.516;2022-10-18T00:20:17;95106.53;;;13.28;65.28
71107;BME280;58763;47.982;11.516;2022-10-18T00:22:42;95106.28;;;13.19;65.63
71107;BME280;58763;47.982;11.516;2022-10-18T00:25:08;95105.47;;;13.18;65.76
71107;BME280;58763;47.982;11.516;2022-10-18T00:27:35;95107.91;;;13.25;65.51
71107;BME280;58763;47.982;11.516;2022-10-18T00:30:00;95110.97;;;13.13;66.15
71107;BME280;58763;47.982;11.516;2022-10-18T00:32:26;95101.44;;;13.16;65.77
71107;BME280;58763;47.982;11.516;2022-10-18T00:34:51;95097.63;;;13.17;66.01
71107;BME280;58763;47.982;11.516;2022-10-18T00:37:17;95101.44;;;13.16;65.95
71107;BME280;58763;47.982;11.516;2022-10-18T00:39:43;95094.66;;;13.13;66.19
71107;BME280;58763;47.982;11.516;2022-10-18T00:42:15;95102.81;;;13.03;66.56
71107;BME280;58763;47.982;11.516;2022-10-18T00:47:08;95112.06;;;13.07;66.94
71107;BME280;58763;47.982;11.516;2022-10-18T00:49:47;95113.69;;;13.08;66.86
71107;BME280;58763;47.982;11.516;2022-10-18T00:52:17;95111.50;;;13.10;66.13
71107;BME280;58763;47.982;11.516;2022-10-18T00:54:45;95106.31;;;13.14;65.29
71107;BME280;58763;47.982;11.516;2022-10-18T00:57:12;95105.53;;;12.98;66.08
71107;BME280;58763;47.982;11.516;2022-10-18T00:59:40;95107.22;;;12.89;66.69
71107;BME280;58763;47.982;11.516;2022-10-18T01:02:07;95107.75;;;12.86;67.16
71107;BME280;58763;47.982;11.516;2022-10-18T01:04:33;95104.25;;;12.86;66.74
71107;BME280;58763;47.982;11.516;2022-10-18T01:13:32;95094.88;;;12.43;68.37
71107;BME280;58763;47.982;11.516;2022-10-18T01:16:09;95086.19;;;12.41;68.43
71107;BME280;58763;47.982;11.516;2022-10-18T01:18:51;95090.28;;;12.43;67.79
71107;BME280;58763;47.982;11.516;2022-10-18T01:24:02;95088.38;;;12.29;67.68
71107;BME280;58763;47.982;11.516;2022-10-18T01:26:37;95081.31;;;12.33;67.52
71107;BME280;58763;47.982;11.516;2022-10-18T01:29:22;95084.84;;;12.28;67.71
71107;BME280;58763;47.982;11.516;2022-10-18T01:32:02;95085.16;;;12.27;67.66
71107;BME280;58763;47.982;11.516;2022-10-18T01:34:32;95075.06;;;12.32;68.03
71107;BME280;58763;47.982;11.516;2022-10-18T01:37:02;95076.19;;;12.36;67.75
71107;BME280;58763;47.982;11.516;2022-10-18T01:39:33;95079.97;;;12.35;67.30
71107;BME280;58763;47.982;11.516;2022-10-18T01:42:03;95078.06;;;12.41;67.08
71107;BME280;58763;47.982;11.516;2022-10-18T01:44:31;95087.28;;;12.45;67.16
71107;BME280;58763;47.982;11.516;2022-10-18T01:46:58;95086.72;;;12.53;66.89
71107;BME280;58763;47.982;11.516;2022-10-18T01:49:25;95091.56;;;12.61;66.57
71107;BME280;58763;47.982;11.516;2022-10-18T01:51:51;95089.66;;;12.62;66.77
71107;BME280;58763;47.982;11.516;2022-10-18T01:54:20;95083.44;;;12.61;66.49
71107;BME280;58763;47.982;11.516;2022-10-18T02:08:04;95082.66;;;12.51;66.35
71107;BME280;58763;47.982;11.516;2022-10-18T02:10:38;95072.91;;;12.39;66.76
71107;BME280;58763;47.982;11.516;2022-10-18T02:13:06;95083.78;;;12.34;67.17
71107;BME280;58763;47.982;11.516;2022-10-18T02:15:34;95091.63;;;12.41;67.05
71107;BME280;58763;47.982;11.516;2022-10-18T02:18:06;95092.69;;;12.45;66.96
71107;BME280;58763;47.982;11.516;2022-10-18T02:20:33;95090.53;;;12.42;67.03
71107;BME280;58763;47.982;11.516;2022-10-18T02:23:02;95091.31;;;12.53;66.45
71107;BME280;58763;47.982;11.516;2022-10-18T02:25:31;95090.50;;;12.57;66.04
71107;BME280;58763;47.982;11.516;2022-10-18T02:27:58;95088.59;;;12.58;65.94
71107;BME280;58763;47.982;11.516;2022-10-18T02:30:31;95091.28;;;12.63;65.90
71107;BME280;58763;47.982;11.516;2022-10-18T02:33:04;95092.66;;;12.60;65.70
71107;BME280;58763;47.982;11.516;2022-10-18T02:35:38;95096.16;;;12.61;65.55
71107;BME280;58763;47.982;11.516;2022-10-18T02:38:08;95091.56;;;12.56;65.86
71107;BME280;58763;47.982;11.516;2022-10-18T02:40:35;95095.94;;;12.52;65.93
71107;BME280;58763;47.982;11.516;2022-10-18T02:43:01;95097.84;;;12.46;65.93
71107;BME280;58763;47.982;11.516;2022-10-18T02:45:26;95100.81;;;12.50;65.99
71107;BME280;58763;47.982;11.516;2022-10-18T02:47:52;95103.84;;;12.43;66.39
71107;BME280;58763;47.982;11.516;2022-10-18T02:50:18;95095.41;;;12.35;66.66
71107;BME280;58763;47.982;11.516;2022-10-18T02:52:43;95098.69;;;12.32;66.61
71107;BME280;58763;47.982;11.516;2022-10-18T02:55:09;95096.00;;;12.27;66.73
71107;BME280;58763;47.982;11.516;2022-10-18T02:57:36;95100.34;;;12.08;67.08
71107;BME280;58763;47.982;11.516;2022-10-18T03:00:03;95094.91;;;11.93;67.67
71107;BME280;58763;47.982;11.516;2022-10-18T03:02:29;95101.97;;;11.89;67.71
71107;BME280;58763;47.982;11.516;2022-10-18T03:04:55;95097.38;;;11.94;67.53
71107;BME280;58763;47.982;11.516;2022-10-18T03:07:20;95101.72;;;11.90;66.92
71107;BME280;58763;47.982;11.516;2022-10-18T03:09:46;95098.72;;;11.87;66.94
71107;BME280;58763;47.982;11.516;2022-10-18T03:12:11;95101.44;;;11.92;67.10
71107;BME280;58763;47.982;11.516;2022-10-18T03:14:37;95091.13;;;11.84;67.40
71107;BME280;58763;47.982;11.516;2022-10-18T03:17:03;95093.84;;;11.89;67.57
71107;BME280;58763;47.982;11.516;2022-10-18T03:19:28;95092.78;;;11.90;67.52
71107;BME280;58763;47.982;11.516;2022-10-18T03:21:54;95095.47;;;11.74;67.38
71107;BME280;58763;47.982;11.516;2022-10-18T03:24:19;95094.94;;;11.83;67.28
71107;BME280;58763;47.982;11.516;2022-10-18T03:26:45;95105.22;;;11.96;67.42
71107;BME280;58763;47.982;11.516;2022-10-18T03:29:10;95112.03;;;11.83;67.55
71107;BME280;58763;47.982;11.516;2022-10-18T03:31:36;95104.16;;;11.71;67.91
71107;BME280;58763;47.982;11.516;2022-10-18T03:34:01;95110.63;;;11.86;67.72
71107;BME280;58763;47.982;11.516;2022-10-18T03:36:27;95110.38;;;11.97;67.06
71107;BME280;58763;47.982;11.516;2022-10-18T03:38:53;95108.22;;;11.99;65.89
71107;BME280;58763;47.982;11.516;2022-10-18T03:41:18;95111.19;;;12.08;66.08
71107;BME280;58763;47.982;11.516;2022-10-18T03:43:45;95109.00;;;12.15;65.32
71107;BME280;58763;47.982;11.516;2022-10-18T03:46:11;95114.16;;;12.11;65.99
71107;BME280;58763;47.982;11.516;2022-10-18T03:48:37;95117.16;;;12.15;66.06
71107;BME280;58763;47.982;11.516;2022-10-18T03:51:02;95109.56;;;11.97;66.51
71107;BME280;58763;47.982;11.516;2022-10-18T03:53:28;95113.88;;;11.93;66.81
71107;BME280;58763;47.982;11.516;2022-10-18T03:55:54;95116.88;;;11.81;67.06
71107;BME280;58763;47.982;11.516;2022-10-18T03:58:21;95114.44;;;11.79;67.24
71107;BME280;58763;47.982;11.516;2022-10-18T04:00:50;95123.09;;;11.76;67.64
71107;BME280;58763;47.982;11.516;2022-10-18T04:03:17;95121.75;;;11.79;67.68
71107;BME280;58763;47.982;11.516;2022-10-18T04:05:43;95131.78;;;11.84;67.57
71107;BME280;58763;47.982;11.516;2022-10-18T04:08:08;95132.81;;;11.62;68.06
71107;BME280;58763;47.982;11.516;2022-10-18T04:10:36;95143.09;;;11.60;68.19
71107;BME280;58763;47.982;11.516;2022-10-18T04:13:02;95140.94;;;11.62;68.21
71107;BME280;58763;47.982;11.516;2022-10-18T04:15:27;95141.78;;;11.68;67.95
71107;BME280;58763;47.982;11.516;2022-10-18T04:17:53;95147.47;;;11.66;68.44
71107;BME280;58763;47.982;11.516;2022-10-18T04:20:18;95149.63;;;11.64;68.59
71107;BME280;58763;47.982;11.516;2022-10-18T04:22:44;95140.13;;;11.57;68.48
71107;BME280;58763;47.982;11.516;2022-10-18T04:25:12;95134.41;;;11.53;69.10
71107;BME280;58763;47.982;11.516;2022-10-18T04:27:37;95134.41;;;11.43;69.32
71107;BME280;58763;47.982;11.516;2022-10-18T04:30:03;95139.00;;;11.38;69.34
71107;BME280;58763;47.982;11.516;2022-10-18T04:32:29;95138.16;;;11.37;69.81
71107;BME280;58763;47.982;11.516;2022-10-18T04:34:54;95134.09;;;11.35;69.90
71107;BME280;58763;47.982;11.516;2022-10-18T04:37:20;95135.97;;;11.24;69.70
71107;BME280;58763;47.982;11.516;2022-10-18T04:39:46;95141.31;;;11.09;70.68
71107;BME280;58763;47.982;11.516;2022-10-18T04:42:13;95146.97;;;10.97;71.33
71107;BME280;58763;47.982;11.516;2022-10-18T04:44:39;95142.88;;;10.90;71.50
71107;BME280;58763;47.982;11.516;2022-10-18T04:47:04;95139.63;;;10.88;71.80
71107;BME280;58763;47.982;11.516;2022-10-18T04:49:30;95136.97;;;10.98;71.34
71107;BME280;58763;47.982;11.516;2022-10-18T04:51:56;95128.84;;;10.98;71.95
71107;BME280;58763;47.982;11.516;2022-10-18T04:54:21;95116.97;;;10.99;71.90
71107;BME280;58763;47.982;11.516;2022-10-18T04:56:47;95127.47;;;10.95;72.26
71107;BME280;58763;47.982;11.516;2022-10-18T04:59:12;95116.38;;;10.97;72.47
71107;BME280;58763;47.982;11.516;2022-10-18T05:01:38;95124.44;;;10.82;72.90
71107;BME280;58763;47.982;11.516;2022-10-18T05:04:03;95124.13;;;10.68;73.64
71107;BME280;58763;47.982;11.516;2022-10-18T05:06:29;95133.28;;;10.62;74.31
71107;BME280;58763;47.982;11.516;2022-10-18T05:08:55;95140.56;;;10.57;74.20
71107;BME280;58763;47.982;11.516;2022-10-18T05:11:20;95150.81;;;10.55;73.79
71107;BME280;58763;47.982;11.516;2022-10-18T05:13:46;95139.03;;;10.34;74.67
71107;BME280;58763;47.982;11.516;2022-10-18T05:16:11;95130.38;;;10.32;74.40
71107;BME280;58763;47.982;11.516;2022-10-18T05:18:37;95126.34;;;10.34;74.13
71107;BME280;58763;47.982;11.516;2022-10-18T05:21:02;95118.59;;;10.43;74.44
71107;BME280;58763;47.982;11.516;2022-10-18T05:23:28;95121.03;;;10.50;73.60
71107;BME280;58763;47.982;11.516;2022-10-18T05:25:53;95122.19;;;10.59;73.32
71107;BME280;58763;47.982;11.516;2022-10-18T05:28:19;95126.50;;;10.60;73.17
71107;BME280;58763;47.982;11.516;2022-10-18T05:30:45;95126.25;;;10.61;73.65
71107;BME280;58763;47.982;11.516;2022-10-18T05:33:10;95123.81;;;10.65;74.20
71107;BME280;58763;47.982;11.516;2022-10-18T05:35:36;95118.97;;;10.72;74.00
71107;BME280;58763;47.982;11.516;2022-10-18T05:38:05;95113.31;;;10.68;74.28
71107;BME280;58763;47.982;11.516;2022-10-18T05:40:32;95118.16;;;10.71;74.27
71107;BME280;58763;47.982;11.516;2022-10-18T05:42:57;95120.31;;;10.69;75.29
71107;BME280;58763;47.982;11.516;2022-10-18T05:45:23;95124.09;;;10.63;75.49
71107;BME280;58763;47.982;11.516;2022-10-18T05:47:48;95134.06;;;10.58;76.82
71107;BME280;58763;47.982;11.516;2022-10-18T05:50:14;95134.56;;;10.50;77.37
71107;BME280;58763;47.982;11.516;2022-10-18T05:52:40;95136.66;;;10.37;77.90
71107;BME280;58763;47.982;11.516;2022-10-18T05:55:05;95140.19;;;10.38;77.99
71107;BME280;58763;47.982;11.516;2022-10-18T05:57:31;95137.97;;;10.35;78.46
71107;BME280;58763;47.982;11.516;2022-10-18T05:59:57;95137.72;;;10.36;78.07
71107;BME280;58763;47.982;11.516;2022-10-18T06:02:22;95139.44;;;10.48;77.33
71107;BME280;58763;47.982;11.516;2022-10-18T06:04:48;95138.59;;;10.47;77.92
71107;BME280;58763;47.982;11.516;2022-10-18T06:07:14;95149.19;;;10.54;77.29
71107;BME280;58763;47.982;11.516;2022-10-18T06:09:40;95150.75;;;10.45;77.37
71107;BME280;58763;47.982;11.516;2022-10-18T06:12:05;95152.38;;;10.46;77.52
71107;BME280;58763;47.982;11.516;2022-10-18T06:14:33;95156.25;;;10.55;77.23
71107;BME280;58763;47.982;11.516;2022-10-18T06:16:59;95141.38;;;10.62;77.01
71107;BME280;58763;47.982;11.516;2022-10-18T06:19:24;95145.00;;;10.78;76.92
71107;BME280;58763;47.982;11.516;2022-10-18T06:21:50;95147.50;;;10.89;76.99
71107;BME280;58763;47.982;11.516;2022-10-18T06:24:16;95146.19;;;11.02;77.22
71107;BME280;58763;47.982;11.516;2022-10-18T06:26:43;95142.72;;;11.17;77.00
71107;BME280;58763;47.982;11.516;2022-10-18T06:29:08;95148.16;;;11.22;76.48
71107;BME280;58763;47.982;11.516;2022-10-18T06:31:34;95144.38;;;11.33;76.15
71107;BME280;58763;47.982;11.516;2022-10-18T06:34:00;95137.09;;;11.33;76.08
71107;BME280;58763;47.982;11.516;2022-10-18T06:36:25;95128.97;;;11.38;76.37
71107;BME280;58763;47.982;11.516;2022-10-18T06:38:51;95130.34;;;11.41;77.00
71107;BME280;58763;47.982;11.516;2022-10-18T06:41:17;95142.25;;;11.40;76.93
71107;BME280;58763;47.982;11.516;2022-10-18T06:43:48;95137.13;;;11.53;77.60
71107;BME280;58763;47.982;11.516;2022-10-18T06:46:14;95145.25;;;11.58;76.38
71107;BME280;58763;47.982;11.516;2022-10-18T06:48:39;95149.63;;;11.64;76.07
71107;BME280;58763;47.982;11.516;2022-10-18T06:51:06;95155.06;;;11.74;74.72
71107;BME280;58763;47.982;11.516;2022-10-18T06:53:34;95152.38;;;11.79;74.83
71107;BME280;58763;47.982;11.516;2022-10-18T06:56:10;95155.63;;;11.82;76.20
71107;BME280;58763;47.982;11.516;2022-10-18T06:58:37;95152.66;;;11.83;75.64
71107;BME280;58763;47.982;11.516;2022-10-18T07:01:11;95156.72;;;11.91;75.31
71107;BME280;58763;47.982;11.516;2022-10-18T07:03:37;95158.91;;;12.04;74.68
71107;BME280;58763;47.982;11.516;2022-10-18T07:06:05;95159.44;;;12.01;74.06
71107;BME280;58763;47.982;11.516;2022-10-18T07:08:31;95164.88;;;12.06;74.01
71107;BME280;58763;47.982;11.516;2022-10-18T07:10:57;95171.38;;;12.15;73.35
71107;BME280;58763;47.982;11.516;2022-10-18T07:13:24;95171.34;;;12.35;73.38
71107;BME280;58763;47.982;11.516;2022-10-18T07:16:06;95177.88;;;12.39;74.39
71107;BME280;58763;47.982;11.516;2022-10-18T07:18:33;95168.38;;;12.46;74.32
71107;BME280;58763;47.982;11.516;2022-10-18T07:21:06;95168.09;;;12.53;74.21
71107;BME280;58763;47.982;11.516;2022-10-18T07:23:33;95162.41;;;12.60;74.33
71107;BME280;58763;47.982;11.516;2022-10-18T07:25:58;95165.91;;;12.65;74.04
71107;BME280;58763;47.982;11.516;2022-10-18T07:28:26;95166.19;;;12.64;73.90
71107;BME280;58763;47.982;11.516;2022-10-18T07:30:52;95173.50;;;12.73;72.88
71107;BME280;58763;47.982;11.516;2022-10-18T07:33:17;95172.91;;;12.86;73.04
71107;BME280;58763;47.982;11.516;2022-10-18T07:35:45;95176.69;;;12.95;73.36
71107;BME280;58763;47.982;11.516;2022-10-18T07:38:10;95172.91;;;13.06;73.16
71107;BME280;58763;47.982;11.516;2022-10-18T07:40:36;95164.69;;;13.22;72.68
71107;BME280;58763;47.982;11.516;2022-10-18T07:43:02;95165.78;;;13.21;71.51
71107;BME280;58763;47.982;11.516;2022-10-18T07:45:27;95163.53;;;13.33;71.93
71107;BME280;58763;47.982;11.516;2022-10-18T07:47:54;95168.41;;;13.41;71.56
71107;BME280;58763;47.982;11.516;2022-10-18T07:50:20;95171.06;;;13.51;70.56
71107;BME280;58763;47.982;11.516;2022-10-18T07:52:45;95175.94;;;13.54;69.50
71107;BME280;58763;47.982;11.516;2022-10-18T07:55:11;95176.66;;;13.74;70.16
71107;BME280;58763;47.982;11.516;2022-10-18T07:57:36;95170.94;;;13.76;70.73
71107;BME280;58763;47.982;11.516;2022-10-18T08:00:02;95177.69;;;13.83;70.06
71107;BME280;58763;47.982;11.516;2022-10-18T08:02:28;95185.72;;;13.99;70.24
71107;BME280;58763;47.982;11.516;2022-10-18T08:04:54;95186.50;;;14.09;69.67
71107;BME280;58763;47.982;11.516;2022-10-18T08:07:19;95180.44;;;14.17;70.56
71107;BME280;58763;47.982;11.516;2022-10-18T08:09:45;95197.19;;;14.39;70.44
71107;BME280;58763;47.982;11.516;2022-10-18T08:12:10;95192.59;;;14.64;69.49
71107;BME280;58763;47.982;11.516;2022-10-18T08:14:36;95194.16;;;14.75;67.12
71107;BME280;58763;47.982;11.516;2022-10-18T08:17:01;95192.91;;;14.91;65.70
71107;BME280;58763;47.982;11.516;2022-10-18T08:19:27;95193.88;;;15.00;66.77
71107;BME280;58763;47.982;11.516;2022-10-18T08:21:52;95191.03;;;15.10;66.98
71107;BME280;58763;47.982;11.516;2022-10-18T08:24:18;95194.22;;;15.17;66.66
71107;BME280;58763;47.982;11.516;2022-10-18T08:26:44;95188.31;;;15.10;66.55
71107;BME280;58763;47.982;11.516;2022-10-18T08:29:09;95184.81;;;15.09;66.42
71107;BME280;58763;47.982;11.516;2022-10-18T08:31:36;95187.38;;;15.19;66.90
71107;BME280;58763;47.982;11.516;2022-10-18T08:34:01;95188.56;;;15.37;67.17
71107;BME280;58763;47.982;11.516;2022-10-18T08:36:27;95182.53;;;15.64;67.38
71107;BME280;58763;47.982;11.516;2022-10-18T08:38:52;95186.97;;;15.97;66.19
71107;BME280;58763;47.982;11.516;2022-10-18T08:46:36;95175.81;;;16.49;66.67
71107;BME280;58763;47.982;11.516;2022-10-18T08:49:03;95173.66;;;16.46;65.59
71107;BME280;58763;47.982;11.516;2022-10-18T08:51:38;95171.72;;;16.52;65.90
71107;BME280;58763;47.982;11.516;2022-10-18T08:54:21;95170.59;;;16.53;66.87
71107;BME280;58763;47.982;11.516;2022-10-18T08:57:00;95175.81;;;16.68;66.73
71107;BME280;58763;47.982;11.516;2022-10-18T08:59:29;95179.47;;;16.77;66.46
71107;BME280;58763;47.982;11.516;2022-10-18T09:05:08;95185.72;;;17.23;64.41
71107;BME280;58763;47.982;11.516;2022-10-18T09:21:00;95171.03;;;18.23;61.83
71107;BME280;58763;47.982;11.516;2022-10-18T09:23:41;95175.81;;;18.53;61.47
71107;BME280;58763;47.982;11.516;2022-10-18T09:26:22;95181.03;;;18.63;58.94
71107;BME280;58763;47.982;11.516;2022-10-18T09:29:01;95179.16;;;18.73;58.51
71107;BME280;58763;47.982;11.516;2022-10-18T09:36:34;95179.38;;;18.76;59.83
71107;BME280;58763;47.982;11.516;2022-10-18T09:39:10;95181.00;;;18.86;60.16
71107;BME280;58763;47.982;11.516;2022-10-18T09:44:23;95172.31;;;19.14;58.37
71107;BME280;58763;47.982;11.516;2022-10-18T09:47:01;95173.34;;;19.27;59.40
71107;BME280;58763;47.982;11.516;2022-10-18T09:49:32;95176.84;;;19.41;57.75
71107;BME280;58763;47.982;11.516;2022-10-18T09:52:03;95173.13;;;19.46;57.77
71107;BME280;58763;47.982;11.516;2022-10-18T09:54:43;95178.50;;;19.59;56.41
71107;BME280;58763;47.982;11.516;2022-10-18T09:59:41;95181.16;;;19.81;56.60
71107;BME280;58763;47.982;11.516;2022-10-18T10:02:19;95175.16;;;19.79;55.87
71107;BME280;58763;47.982;11.516;2022-10-18T10:04:51;95168.56;;;19.80;56.06
71107;BME280;58763;47.982;11.516;2022-10-18T10:07:19;95168.50;;;19.63;55.74
71107;BME280;58763;47.982;11.516;2022-10-18T10:09:47;95170.03;;;19.86;54.91
71107;BME280;58763;47.982;11.516;2022-10-18T10:14:52;95157.44;;;19.94;56.14
71107;BME280;58763;47.982;11.516;2022-10-18T10:17:24;95157.31;;;20.08;55.99
71107;BME280;58763;47.982;11.516;2022-10-18T10:20:02;95154.28;;;20.26;55.95
71107;BME280;58763;47.982;11.516;2022-10-18T10:22:37;95157.22;;;20.30;54.72
71107;BME280;58763;47.982;11.516;2022-10-18T10:25:05;95153.28;;;20.14;54.82
71107;BME280;58763;47.982;11.516;2022-10-18T10:27:42;95155.72;;;20.15;54.89
71107;BME280;58763;47.982;11.516;2022-10-18T10:32:53;95160.53;;;20.01;56.30
71107;BME280;58763;47.982;11.516;2022-10-18T10:35:39;95159.41;;;20.11;56.09
71107;BME280;58763;47.982;11.516;2022-10-18T10:38:05;95155.06;;;20.18;56.73
71107;BME280;58763;47.982;11.516;2022-10-18T10:40:39;95154.88;;;20.15;55.40
71107;BME280;58763;47.982;11.516;2022-10-18T10:43:32;95155.84;;;20.19;55.73
71107;BME280;58763;47.982;11.516;2022-10-18T10:46:08;95151.06;;;20.41;56.74
71107;BME280;58763;47.982;11.516;2022-10-18T10:48:54;95145.22;;;20.51;55.11
71107;BME280;58763;47.982;11.516;2022-10-18T10:54:02;95139.53;;;20.91;54.98
71107;BME280;58763;47.982;11.516;2022-10-18T10:56:31;95140.63;;;20.98;54.63
71107;BME280;58763;47.982;11.516;2022-10-18T10:59:39;95133.31;;;21.19;53.30
71107;BME280;58763;47.982;11.516;2022-10-18T11:04:41;95126.34;;;21.30;53.02
71107;BME280;58763;47.982;11.516;2022-10-18T11:07:40;95124.63;;;21.47;51.78
71107;BME280;58763;47.982;11.516;2022-10-18T11:12:38;95123.34;;;21.44;51.25
71107;BME280;58763;47.982;11.516;2022-10-18T11:15:09;95122.41;;;21.69;51.52
71107;BME280;58763;47.982;11.516;2022-10-18T11:17:42;95117.69;;;21.41;51.15
71107;BME280;58763;47.982;11.516;2022-10-18T11:20:57;95116.63;;;21.33;50.43
71107;BME280;58763;47.982;11.516;2022-10-18T11:23:30;95116.38;;;21.47;50.92
71107;BME280;58763;47.982;11.516;2022-10-18T11:28:58;95114.22;;;21.61;50.90
71107;BME280;58763;47.982;11.516;2022-10-18T11:31:31;95114.69;;;21.63;50.64
71107;BME280;58763;47.982;11.516;2022-10-18T11:34:22;95107.81;;;21.77;50.80
71107;BME280;58763;47.982;11.516;2022-10-18T11:36:58;95110.78;;;21.93;49.63
71107;BME280;58763;47.982;11.516;2022-10-18T11:40:17;95105.63;;;21.83;50.62
71107;BME280;58763;47.982;11.516;2022-10-18T11:45:31;95100.91;;;21.92;50.22
71107;BME280;58763;47.982;11.516;2022-10-18T11:48:30;95106.94;;;22.15;50.33
71107;BME280;58763;47.982;11.516;2022-10-18T11:59:27;95089.41;;;22.31;48.79
71107;BME280;58763;47.982;11.516;2022-10-18T12:02:24;95089.16;;;22.45;49.04
71107;BME280;58763;47.982;11.516;2022-10-18T12:05:03;95092.25;;;22.43;49.35
71107;BME280;58763;47.982;11.516;2022-10-18T12:07:32;95082.91;;;22.56;49.79
71107;BME280;58763;47.982;11.516;2022-10-18T12:09:59;95076.53;;;22.77;49.09
71107;BME280;58763;47.982;11.516;2022-10-18T12:12:30;95077.72;;;22.88;48.43
71107;BME280;58763;47.982;11.516;2022-10-18T12:15:00;95070.50;;;22.95;49.02
71107;BME280;58763;47.982;11.516;2022-10-18T12:19:56;95066.84;;;23.15;48.73
71107;BME280;58763;47.982;11.516;2022-10-18T12:22:38;95074.78;;;23.05;48.27
71107;BME280;58763;47.982;11.516;2022-10-18T12:25:11;95080.38;;;22.84;49.02
71107;BME280;58763;47.982;11.516;2022-10-18T12:27:45;95079.78;;;22.58;50.47
71107;BME280;58763;47.982;11.516;2022-10-18T12:32:44;95067.63;;;22.59;49.97
71107;BME280;58763;47.982;11.516;2022-10-18T12:35:15;95065.84;;;22.54;51.03
71107;BME280;58763;47.982;11.516;2022-10-18T12:38:11;95070.75;;;22.37;51.35
71107;BME280;58763;47.982;11.516;2022-10-18T12:40:42;95062.38;;;22.45;51.06
71107;BME280;58763;47.982;11.516;2022-10-18T12:43:17;95057.38;;;22.27;51.76
71107;BME280;58763;47.982;11.516;2022-10-18T12:46:04;95056.75;;;22.42;50.87
71107;BME280;58763;47.982;11.516;2022-10-18T12:48:31;95051.25;;;22.42;50.78
71107;BME280;58763;47.982;11.516;2022-10-18T12:51:06;95060.59;;;22.49;50.86
71107;BME280;58763;47.982;11.516;2022-10-18T12:53:37;95054.16;;;22.57;51.11
71107;BME280;58763;47.982;11.516;2022-10-18T13:09:27;95049.81;;;22.89;49.87
71107;BME280;58763;47.982;11.516;2022-10-18T13:12:43;95047.19;;;23.05;49.42
71107;BME280;58763;47.982;11.516;2022-10-18T13:25:48;95052.31;;;22.49;48.70
71107;BME280;58763;47.982;11.516;2022-10-18T13:28:50;95049.31;;;22.42;50.11
71107;BME280;58763;47.982;11.516;2022-10-18T13:31:26;95048.69;;;22.37;51.01
71107;BME280;58763;47.982;11.516;2022-10-18T13:33:53;95055.63;;;22.22;50.86
71107;BME280;58763;47.982;11.516;2022-10-18T13:36:22;95055.56;;;22.31;51.53
71107;BME280;58763;47.982;11.516;2022-10-18T13:41:20;95052.97;;;22.14;50.82
71107;BME280;58763;47.982;11.516;2022-10-18T13:49:04;95048.22;;;22.35;52.04
71107;BME280;58763;47.982;11.516;2022-10-18T14:05:24;95050.19;;;22.34;51.53
71107;BME280;58763;47.982;11.516;2022-10-18T14:08:03;95046.34;;;22.59;51.77
71107;BME280;58763;47.982;11.516;2022-10-18T14:11:04;95043.91;;;22.79;51.57
71107;BME280;58763;47.982;11.516;2022-10-18T14:13:35;95041.47;;;22.65;50.59
71107;BME280;58763;47.982;11.516;2022-10-18T14:16:09;95051.34;;;22.45;51.13
71107;BME280;58763;47.982;11.516;2022-10-18T14:18:40;95041.06;;;22.01;50.65
71107;BME280;58763;47.982;11.516;2022-10-18T14:21:11;95051.94;;;21.77;52.49
71107;BME280;58763;47.982;11.516;2022-10-18T14:23:43;95047.19;;;21.57;51.48
71107;BME280;58763;47.982;11.516;2022-10-18T14:28:38;95045.34;;;21.02;54.21
71107;BME280;58763;47.982;11.516;2022-10-18T14:31:09;95050.91;;;20.85;53.83
71107;BME280;58763;47.982;11.516;2022-10-18T14:33:58;95045.47;;;20.68;54.81
71107;BME280;58763;47.982;11.516;2022-10-18T14:36:26;95045.75;;;20.75;54.65
71107;BME280;58763;47.982;11.516;2022-10-18T14:39:01;95042.06;;;20.71;55.39
71107;BME280;58763;47.982;11.516;2022-10-18T14:41:31;95047.03;;;20.78;54.89
71107;BME280;58763;47.982;11.516;2022-10-18T14:44:19;95045.59;;;20.80;54.63
71107;BME280;58763;47.982;11.516;2022-10-18T14:49:28;95046.22;;;20.77;54.97
71107;BME280;58763;47.982;11.516;2022-10-18T14:51:56;95045.94;;;20.70;55.66
71107;BME280;58763;47.982;11.516;2022-10-18T14:54:31;95049.53;;;20.62;54.93
71107;BME280;58763;47.982;11.516;2022-10-18T14:56:58;95050.31;;;20.71;54.78
71107;BME280;58763;47.982;11.516;2022-10-18T14:59:29;95040.47;;;20.61;55.05
71107;BME280;58763;47.982;11.516;2022-10-18T15:02:09;95046.00;;;20.53;54.50
71107;BME280;58763;47.982;11.516;2022-10-18T15:04:36;95042.44;;;20.52;54.64
71107;BME280;58763;47.982;11.516;2022-10-18T15:07:05;95037.13;;;20.47;54.76
71107;BME280;58763;47.982;11.516;2022-10-18T15:09:33;95050.88;;;20.22;55.22
71107;BME280;58763;47.982;11.516;2022-10-18T15:12:02;95051.69;;;20.31;55.68
71107;BME280;58763;47.982;11.516;2022-10-18T15:14:29;95044.44;;;20.09;55.73
71107;BME280;58763;47.982;11.516;2022-10-18T15:17:00;95051.66;;;20.05;55.84
71107;BME280;58763;47.982;11.516;2022-10-18T15:19:30;95050.25;;;19.90;56.24
71107;BME280;58763;47.982;11.516;2022-10-18T15:22:03;95047.16;;;20.00;56.13